Time,TemperatureF,DewpointF,PressureIn,WindDirection,WindDirectionDegrees,WindSpeedMPH,WindSpeedGustMPH,Humidity,HourlyPrecipIn,Conditions,Clouds,dailyrainin,SolarRadiationWatts/m^2,SoftwareType,DateUTC
2013-06-11 00:00:00,80.9,51.0,29.55,SSW,202,0.0,-999.0,17,-99.99,,,0.00,0.0,cwc,2013-06-11 06:00:00,
2013-06-11 00:05:00,80.7,50.8,29.55,SSW,202,0.0,-999.0,17,-99.99,,,0.00,0.0,cwc,2013-06-11 06:05:00,
2013-06-11 00:10:00,80.5,51.0,29.55,SSW,202,0.0,-999.0,18,-99.99,,,0.00,0.0,cwc,2013-06-11 06:10:00,
2013-06-11 00:15:00,80.0,50.5,29.55,SSW,202,0.0,-999.0,18,-99.99,,,0.00,0.0,cwc,2013-06-11 06:15:00,
2013-06-11 00:20:00,79.4,49.9,29.55,SSW,202,1.0,-999.0,18,-99.99,,,0.00,0.0,cwc,2013-06-11 06:20:00,
2013-06-11 00:25:00,78.6,49.1,29.55,SSW,202,1.0,-999.0,18,-99.99,,,0.00,0.0,cwc,2013-06-11 06:25:00,
2013-06-11 00:30:00,77.9,48.4,29.55,SSW,202,1.0,-999.0,18,-99.99,,,0.00,0.0,cwc,2013-06-11 06:30:00,
2013-06-11 00:35:00,77.7,48.5,29.54,SSW,202,1.0,-999.0,19,-99.99,,,0.00,0.0,cwc,2013-06-11 06:35:00,
2013-06-11 00:40:00,77.2,48.0,29.54,SSW,204,4.0,-999.0,19,-99.99,,,0.00,0.0,cwc,2013-06-11 06:40:00,
2013-06-11 00:45:00,77.1,47.9,29.54,SSW,204,0.0,-999.0,19,-99.99,,,0.00,0.0,cwc,2013-06-11 06:45:00,
2013-06-11 00:50:00,77.3,48.1,29.54,SW,222,2.0,-999.0,19,-99.99,,,0.00,0.0,cwc,2013-06-11 06:50:00,
2013-06-11 00:55:00,77.6,48.4,29.54,SW,222,0.0,-999.0,19,-99.99,,,0.00,0.0,cwc,2013-06-11 06:55:00,
2013-06-11 01:00:00,77.9,48.7,29.54,SW,222,0.0,-999.0,19,-99.99,,,0.00,0.0,cwc,2013-06-11 07:00:00,
2013-06-11 01:05:00,77.6,48.4,29.54,SW,222,2.0,-999.0,19,-99.99,,,0.00,0.0,cwc,2013-06-11 07:05:00,
2013-06-11 01:10:00,76.2,47.4,29.54,SW,222,2.0,-999.0,20,-99.99,,,0.00,0.0,cwc,2013-06-11 07:10:00,
2013-06-11 01:15:00,75.1,46.3,29.54,SW,222,1.0,-999.0,20,-99.99,,,0.00,0.0,cwc,2013-06-11 07:15:00,
2013-06-11 01:20:00,74.6,46.5,29.55,SW,222,3.0,-999.0,22,-99.99,,,0.00,0.0,cwc,2013-06-11 07:20:00,
2013-06-11 01:25:00,73.7,46.0,29.55,SW,222,0.0,-999.0,23,-99.99,,,0.00,0.0,cwc,2013-06-11 07:25:00,
2013-06-11 01:30:00,72.9,44.8,29.55,SW,222,2.0,-999.0,22,-99.99,,,0.00,0.0,cwc,2013-06-11 07:30:00,
2013-06-11 01:35:00,73.1,45.0,29.55,SW,222,1.0,-999.0,22,-99.99,,,0.00,0.0,cwc,2013-06-11 07:35:00,
2013-06-11 01:40:00,73.1,45.0,29.55,SW,221,4.0,-999.0,22,-99.99,,,0.00,0.0,cwc,2013-06-11 07:40:00,
2013-06-11 01:45:00,73.1,44.7,29.55,SW,221,2.0,-999.0,21,-99.99,,,0.00,0.0,cwc,2013-06-11 07:45:00,
2013-06-11 01:50:00,73.5,45.1,29.56,SW,221,0.0,-999.0,21,-99.99,,,0.00,0.0,cwc,2013-06-11 07:50:00,
2013-06-11 01:55:00,73.6,45.2,29.56,SW,221,3.0,-999.0,21,-99.99,,,0.00,0.0,cwc,2013-06-11 07:55:00,
2013-06-11 02:00:00,73.7,45.6,29.56,SW,221,0.0,-999.0,22,-99.99,,,0.00,0.0,cwc,2013-06-11 08:00:00,
2013-06-11 02:05:00,73.6,45.5,29.56,SW,221,1.0,-999.0,22,-99.99,,,0.00,0.0,cwc,2013-06-11 08:05:00,
2013-06-11 02:10:00,73.1,45.0,29.56,SW,221,0.0,-999.0,22,-99.99,,,0.00,0.0,cwc,2013-06-11 08:10:00,
2013-06-11 02:15:00,72.3,44.6,29.57,SW,221,0.0,-999.0,23,-99.99,,,0.00,0.0,cwc,2013-06-11 08:15:00,
2013-06-11 02:20:00,71.7,44.3,29.57,SW,221,0.0,-999.0,24,-99.99,,,0.00,0.0,cwc,2013-06-11 08:20:00,
2013-06-11 02:25:00,71.2,43.8,29.57,SW,221,1.0,-999.0,24,-99.99,,,0.00,0.0,cwc,2013-06-11 08:25:00,
2013-06-11 02:30:00,70.4,43.8,29.58,SW,222,2.0,-999.0,26,-99.99,,,0.00,0.0,cwc,2013-06-11 08:30:00,
2013-06-11 02:40:00,69.2,42.9,29.58,SW,221,0.0,-999.0,27,-99.99,,,0.00,0.0,cwc,2013-06-11 08:40:00,
2013-06-11 02:45:00,68.6,42.3,29.58,SW,221,0.0,-999.0,27,-99.99,,,0.00,0.0,cwc,2013-06-11 08:45:00,
2013-06-11 02:50:00,68.1,41.5,29.58,SW,221,0.0,-999.0,26,-99.99,,,0.00,0.0,cwc,2013-06-11 08:50:00,
2013-06-11 02:55:00,67.8,41.2,29.58,SW,222,0.0,-999.0,26,-99.99,,,0.00,0.0,cwc,2013-06-11 08:55:00,
2013-06-11 03:00:00,67.6,41.7,29.58,SW,221,1.0,-999.0,28,-99.99,,,0.00,0.0,cwc,2013-06-11 09:00:00,
2013-06-11 03:05:00,67.4,41.1,29.58,SW,222,2.0,-999.0,27,-99.99,,,0.00,0.0,cwc,2013-06-11 09:05:00,
2013-06-11 03:10:00,67.6,41.0,29.58,SW,222,0.0,-999.0,26,-99.99,,,0.00,0.0,cwc,2013-06-11 09:10:00,
2013-06-11 03:15:00,67.7,41.1,29.58,SW,222,1.0,-999.0,26,-99.99,,,0.00,0.0,cwc,2013-06-11 09:15:00,
2013-06-11 03:25:00,68.1,41.5,29.58,SW,223,1.0,-999.0,26,-99.99,,,0.00,0.0,cwc,2013-06-11 09:25:00,
2013-06-11 03:30:00,68.2,41.2,29.58,SW,223,1.0,-999.0,25,-99.99,,,0.00,0.0,cwc,2013-06-11 09:30:00,
2013-06-11 03:35:00,67.7,41.1,29.59,SW,223,1.0,-999.0,26,-99.99,,,0.00,0.0,cwc,2013-06-11 09:35:00,
2013-06-11 03:40:00,67.1,40.5,29.59,SW,222,1.0,-999.0,26,-99.99,,,0.00,0.0,cwc,2013-06-11 09:40:00,
2013-06-11 03:45:00,66.0,39.4,29.59,SW,223,0.0,-999.0,26,-99.99,,,0.00,0.0,cwc,2013-06-11 09:45:00,
2013-06-11 03:50:00,65.1,38.8,29.59,SW,223,2.0,-999.0,27,-99.99,,,0.00,0.0,cwc,2013-06-11 09:50:00,
2013-06-11 03:55:00,64.0,37.7,29.59,SW,223,0.0,-999.0,27,-99.99,,,0.00,0.0,cwc,2013-06-11 09:55:00,
2013-06-11 04:00:00,63.6,37.3,29.59,SW,223,3.0,-999.0,27,-99.99,,,0.00,0.0,cwc,2013-06-11 10:00:00,
2013-06-11 04:05:00,63.0,36.7,29.59,SW,223,2.0,-999.0,27,-99.99,,,0.00,0.0,cwc,2013-06-11 10:05:00,
2013-06-11 04:10:00,62.7,36.4,29.60,SW,223,4.0,-999.0,27,-99.99,,,0.00,0.0,cwc,2013-06-11 10:10:00,
2013-06-11 04:15:00,62.5,35.9,29.60,SW,222,3.0,-999.0,26,-99.99,,,0.00,0.0,cwc,2013-06-11 10:15:00,
2013-06-11 04:25:00,61.4,35.1,29.61,SW,223,3.0,-999.0,27,-99.99,,,0.00,0.0,cwc,2013-06-11 10:25:00,
2013-06-11 04:30:00,61.1,34.5,29.61,SW,223,3.0,-999.0,26,-99.99,,,0.00,0.0,cwc,2013-06-11 10:30:00,
2013-06-11 04:40:00,60.7,34.4,29.61,SW,222,2.0,-999.0,27,-99.99,,,0.00,0.0,cwc,2013-06-11 10:40:00,
2013-06-11 04:45:00,60.7,34.4,29.62,SW,223,2.0,-999.0,27,-99.99,,,0.00,0.0,cwc,2013-06-11 10:45:00,
2013-06-11 04:50:00,60.7,34.4,29.62,SW,222,2.0,-999.0,27,-99.99,,,0.00,0.0,cwc,2013-06-11 10:50:00,
2013-06-11 04:55:00,60.3,34.0,29.62,SW,222,3.0,-999.0,27,-99.99,,,0.00,0.0,cwc,2013-06-11 10:55:00,
2013-06-11 05:00:00,60.0,34.1,29.62,SW,223,3.0,-999.0,28,-99.99,,,0.00,0.0,cwc,2013-06-11 11:00:00,
2013-06-11 05:05:00,59.8,33.9,29.63,SW,223,2.0,-999.0,28,-99.99,,,0.00,0.0,cwc,2013-06-11 11:05:00,
2013-06-11 05:10:00,59.7,33.4,29.63,SW,223,3.0,-999.0,27,-99.99,,,0.00,0.0,cwc,2013-06-11 11:10:00,
2013-06-11 05:20:00,59.0,33.4,29.63,SW,222,3.0,-999.0,29,-99.99,,,0.00,0.0,cwc,2013-06-11 11:20:00,
2013-06-11 05:25:00,59.0,33.4,29.64,SW,222,0.0,-999.0,29,-99.99,,,0.00,0.0,cwc,2013-06-11 11:25:00,
2013-06-11 05:30:00,59.0,33.4,29.64,SW,222,3.0,-999.0,29,-99.99,,,0.00,0.0,cwc,2013-06-11 11:30:00,
2013-06-11 05:35:00,58.8,32.9,29.64,SW,222,0.0,-999.0,28,-99.99,,,0.00,0.0,cwc,2013-06-11 11:35:00,
2013-06-11 05:40:00,58.7,33.1,29.64,SW,223,1.0,-999.0,29,-99.99,,,0.00,0.0,cwc,2013-06-11 11:40:00,
2013-06-11 05:45:00,58.3,32.7,29.64,SW,223,1.0,-999.0,29,-99.99,,,0.00,0.0,cwc,2013-06-11 11:45:00,
2013-06-11 05:50:00,58.2,32.6,29.65,SW,223,3.0,-999.0,29,-99.99,,,0.00,0.0,cwc,2013-06-11 11:50:00,
2013-06-11 05:55:00,58.2,32.6,29.65,SW,222,3.0,-999.0,29,-99.99,,,0.00,5.0,cwc,2013-06-11 11:55:00,
2013-06-11 06:00:00,58.0,32.4,29.65,SW,222,2.0,-999.0,29,-99.99,,,0.00,9.0,cwc,2013-06-11 12:00:00,
2013-06-11 06:05:00,58.2,32.6,29.65,SW,223,3.0,-999.0,29,-99.99,,,0.00,12.0,cwc,2013-06-11 12:05:00,
2013-06-11 06:10:00,58.0,32.4,29.65,SW,223,1.0,-999.0,29,-99.99,,,0.00,18.0,cwc,2013-06-11 12:10:00,
2013-06-11 06:15:00,57.7,32.5,29.65,SW,222,4.0,-999.0,30,-99.99,,,0.00,25.0,cwc,2013-06-11 12:15:00,
2013-06-11 06:20:00,57.6,32.4,29.66,SW,223,0.0,-999.0,30,-99.99,,,0.00,35.0,cwc,2013-06-11 12:20:00,
2013-06-11 06:25:00,58.0,33.2,29.66,SW,223,0.0,-999.0,31,-99.99,,,0.00,46.0,cwc,2013-06-11 12:25:00,
2013-06-11 06:30:00,58.0,33.2,29.66,SW,222,0.0,-999.0,31,-99.99,,,0.00,54.0,cwc,2013-06-11 12:30:00,
2013-06-11 06:35:00,58.1,33.6,29.67,SW,223,1.0,-999.0,32,-99.99,,,0.00,65.0,cwc,2013-06-11 12:35:00,
2013-06-11 06:40:00,58.1,33.6,29.66,SW,223,2.0,-999.0,32,-99.99,,,0.00,81.0,cwc,2013-06-11 12:40:00,
2013-06-11 06:45:00,58.2,33.4,29.67,SW,223,0.0,-999.0,31,-99.99,,,0.00,100.0,cwc,2013-06-11 12:45:00,
2013-06-11 06:50:00,58.6,34.1,29.67,SW,222,2.0,-999.0,32,-99.99,,,0.00,123.0,cwc,2013-06-11 12:50:00,
2013-06-11 06:55:00,59.0,34.5,29.66,SW,223,1.0,-999.0,32,-99.99,,,0.00,146.0,cwc,2013-06-11 12:55:00,
2013-06-11 07:00:00,59.3,34.8,29.67,SW,223,0.0,-999.0,32,-99.99,,,0.00,162.0,cwc,2013-06-11 13:00:00,
2013-06-11 07:05:00,59.9,36.5,29.67,SW,222,0.0,-999.0,35,-99.99,,,0.00,176.0,cwc,2013-06-11 13:05:00,
2013-06-11 07:10:00,60.7,38.4,29.67,SW,222,0.0,-999.0,38,-99.99,,,0.00,200.0,cwc,2013-06-11 13:10:00,
2013-06-11 07:15:00,61.3,38.3,29.67,SW,223,0.0,-999.0,36,-99.99,,,0.00,218.0,cwc,2013-06-11 13:15:00,
2013-06-11 07:20:00,61.8,37.0,29.67,SW,223,0.0,-999.0,31,-99.99,,,0.00,234.0,cwc,2013-06-11 13:20:00,
2013-06-11 07:25:00,62.5,39.1,29.67,SW,223,0.0,-999.0,35,-99.99,,,0.00,255.0,cwc,2013-06-11 13:25:00,
2013-06-11 07:30:00,63.5,41.2,29.67,SW,222,0.0,-999.0,38,-99.99,,,0.00,272.0,cwc,2013-06-11 13:30:00,
2013-06-11 07:40:00,65.6,39.3,29.67,SW,223,0.0,-999.0,27,-99.99,,,0.00,295.0,cwc,2013-06-11 13:40:00,
2013-06-11 07:45:00,66.7,40.4,29.67,SW,223,0.0,-999.0,27,-99.99,,,0.00,323.0,cwc,2013-06-11 13:45:00,
2013-06-11 07:50:00,67.9,41.6,29.67,SW,223,0.0,-999.0,27,-99.99,,,0.00,343.0,cwc,2013-06-11 13:50:00,
2013-06-11 08:00:00,69.6,42.2,29.67,SW,223,0.0,-999.0,24,-99.99,,,0.00,371.0,cwc,2013-06-11 14:00:00,
2013-06-11 08:05:00,70.5,43.1,29.67,SW,222,0.0,-999.0,24,-99.99,,,0.00,392.0,cwc,2013-06-11 14:05:00,
2013-06-11 08:10:00,71.5,44.1,29.66,SW,223,1.0,-999.0,24,-99.99,,,0.00,410.0,cwc,2013-06-11 14:10:00,
2013-06-11 08:15:00,72.3,44.9,29.66,SW,223,0.0,-999.0,24,-99.99,,,0.00,427.0,cwc,2013-06-11 14:15:00,
2013-06-11 08:20:00,73.0,45.3,29.66,SW,222,1.0,-999.0,23,-99.99,,,0.00,445.0,cwc,2013-06-11 14:20:00,
2013-06-11 08:25:00,73.6,45.9,29.66,SW,222,0.0,-999.0,23,-99.99,,,0.00,462.0,cwc,2013-06-11 14:25:00,
2013-06-11 08:30:00,73.9,45.8,29.66,SW,223,1.0,-999.0,22,-99.99,,,0.00,480.0,cwc,2013-06-11 14:30:00,
2013-06-11 08:40:00,74.9,46.8,29.66,SW,223,1.0,-999.0,22,-99.99,,,0.00,510.0,cwc,2013-06-11 14:40:00,
2013-06-11 08:45:00,75.4,47.0,29.65,SW,223,1.0,-999.0,21,-99.99,,,0.00,522.0,cwc,2013-06-11 14:45:00,
2013-06-11 08:55:00,76.9,48.1,29.65,SW,223,0.0,-999.0,20,-99.99,,,0.00,554.0,cwc,2013-06-11 14:55:00,
2013-06-11 09:00:00,77.5,48.7,29.65,SW,226,0.0,-999.0,20,-99.99,,,0.00,568.0,cwc,2013-06-11 15:00:00,
2013-06-11 09:05:00,78.2,48.7,29.65,SW,226,1.0,-999.0,18,-99.99,,,0.00,582.0,cwc,2013-06-11 15:05:00,
2013-06-11 09:10:00,78.9,49.7,29.65,SW,226,2.0,-999.0,19,-99.99,,,0.00,601.0,cwc,2013-06-11 15:10:00,
2013-06-11 09:15:00,79.3,50.1,29.64,SW,226,0.0,-999.0,19,-99.99,,,0.00,619.0,cwc,2013-06-11 15:15:00,
2013-06-11 09:20:00,79.9,50.7,29.64,SW,226,0.0,-999.0,19,-99.99,,,0.00,633.0,cwc,2013-06-11 15:20:00,
2013-06-11 09:30:00,81.7,51.8,29.64,SW,225,0.0,-999.0,17,-99.99,,,0.00,650.0,cwc,2013-06-11 15:30:00,
2013-06-11 09:35:00,82.5,52.3,29.63,SW,219,2.0,-999.0,16,-99.99,,,0.00,666.0,cwc,2013-06-11 15:35:00,
2013-06-11 09:40:00,83.4,52.8,29.63,SSW,200,0.0,-999.0,15,-99.99,,,0.00,680.0,cwc,2013-06-11 15:40:00,
2013-06-11 09:45:00,84.3,53.3,29.63,SSW,198,2.0,-999.0,14,-99.99,,,0.00,694.0,cwc,2013-06-11 15:45:00,
2013-06-11 09:50:00,85.0,54.0,29.62,SSW,198,0.0,-999.0,14,-99.99,,,0.00,705.0,cwc,2013-06-11 15:50:00,
2013-06-11 09:55:00,85.7,54.7,29.63,SSW,198,0.0,-999.0,14,-99.99,,,0.00,722.0,cwc,2013-06-11 15:55:00,
2013-06-11 10:00:00,86.0,54.7,29.62,South,187,6.0,-999.0,13,-99.99,,,0.00,737.0,cwc,2013-06-11 16:00:00,
2013-06-11 10:05:00,85.8,54.8,29.62,WSW,257,2.0,-999.0,14,-99.99,,,0.00,749.0,cwc,2013-06-11 16:05:00,
2013-06-11 10:10:00,86.1,54.8,29.61,WSW,241,5.0,-999.0,13,-99.99,,,0.00,768.0,cwc,2013-06-11 16:10:00,
2013-06-11 10:15:00,85.9,54.6,29.61,WSW,240,6.0,-999.0,13,-99.99,,,0.00,773.0,cwc,2013-06-11 16:15:00,
2013-06-11 10:20:00,85.6,54.3,29.61,SW,229,1.0,-999.0,13,-99.99,,,0.00,786.0,cwc,2013-06-11 16:20:00,
2013-06-11 10:25:00,85.9,54.9,29.61,SW,225,1.0,-999.0,14,-99.99,,,0.00,793.0,cwc,2013-06-11 16:25:00,
2013-06-11 10:30:00,86.8,55.8,29.61,East,101,3.0,-999.0,14,-99.99,,,0.00,780.0,cwc,2013-06-11 16:30:00,
2013-06-11 10:40:00,87.5,56.2,29.60,SW,234,1.0,-999.0,13,-99.99,,,0.00,821.0,cwc,2013-06-11 16:40:00,
2013-06-11 10:45:00,87.2,55.9,29.61,South,186,0.0,-999.0,13,-99.99,,,0.00,831.0,cwc,2013-06-11 16:45:00,
2013-06-11 10:50:00,87.4,56.1,29.60,South,185,2.0,-999.0,13,-99.99,,,0.00,846.0,cwc,2013-06-11 16:50:00,
2013-06-11 10:55:00,87.9,56.6,29.60,South,190,0.0,-999.0,13,-99.99,,,0.00,863.0,cwc,2013-06-11 16:55:00,
2013-06-11 11:00:00,88.4,56.7,29.60,SSW,200,7.0,-999.0,12,-99.99,,,0.00,900.0,cwc,2013-06-11 17:00:00,
2013-06-11 11:10:00,87.8,56.5,29.60,SSW,192,11.0,-999.0,13,-99.99,,,0.00,900.0,cwc,2013-06-11 17:10:00,
2013-06-11 11:15:00,87.9,56.6,29.60,SW,236,2.0,-999.0,13,-99.99,,,0.00,891.0,cwc,2013-06-11 17:15:00,
2013-06-11 11:20:00,88.1,56.8,29.60,SSE,161,6.0,-999.0,13,-99.99,,,0.00,914.0,cwc,2013-06-11 17:20:00,
2013-06-11 11:25:00,88.0,56.7,29.60,SSW,200,5.0,-999.0,13,-99.99,,,0.00,942.0,cwc,2013-06-11 17:25:00,
2013-06-11 11:30:00,88.3,57.0,29.60,SSW,203,11.0,-999.0,13,-99.99,,,0.00,946.0,cwc,2013-06-11 17:30:00,
2013-06-11 11:35:00,88.6,57.3,29.60,SSE,164,5.0,-999.0,13,-99.99,,,0.00,951.0,cwc,2013-06-11 17:35:00,
2013-06-11 11:40:00,89.2,57.5,29.59,SSW,209,3.0,-999.0,12,-99.99,,,0.00,965.0,cwc,2013-06-11 17:40:00,
2013-06-11 11:45:00,89.4,58.1,29.59,SSW,198,3.0,-999.0,13,-99.99,,,0.00,970.0,cwc,2013-06-11 17:45:00,
2013-06-11 11:50:00,89.4,57.7,29.59,SSE,168,3.0,-999.0,12,-99.99,,,0.00,956.0,cwc,2013-06-11 17:50:00,
2013-06-11 11:55:00,89.4,58.1,29.59,NNE,30,3.0,-999.0,13,-99.99,,,0.00,972.0,cwc,2013-06-11 17:55:00,
2013-06-11 12:00:00,89.5,57.8,29.58,NW,315,5.0,-999.0,12,-99.99,,,0.00,963.0,cwc,2013-06-11 18:00:00,
2013-06-11 12:10:00,89.9,58.2,29.58,SW,222,1.0,-999.0,12,-99.99,,,0.00,997.0,cwc,2013-06-11 18:10:00,
2013-06-11 12:15:00,89.9,58.2,29.58,West,269,6.0,-999.0,12,-99.99,,,0.00,995.0,cwc,2013-06-11 18:15:00,
2013-06-11 12:20:00,90.2,58.5,29.57,ENE,65,3.0,-999.0,12,-99.99,,,0.00,990.0,cwc,2013-06-11 18:20:00,
2013-06-11 12:25:00,90.6,58.9,29.57,SSW,203,10.0,-999.0,12,-99.99,,,0.00,1002.0,cwc,2013-06-11 18:25:00,
2013-06-11 12:30:00,90.5,58.8,29.57,SSE,159,7.0,-999.0,12,-99.99,,,0.00,1011.0,cwc,2013-06-11 18:30:00,
2013-06-11 12:40:00,90.9,59.2,29.56,South,186,19.0,-999.0,12,-99.99,,,0.00,1016.0,cwc,2013-06-11 18:40:00,
2013-06-11 12:45:00,90.9,59.2,29.56,South,188,10.0,-999.0,12,-99.99,,,0.00,1002.0,cwc,2013-06-11 18:45:00,
2013-06-11 12:50:00,91.4,59.7,29.55,SSE,167,5.0,-999.0,12,-99.99,,,0.00,1016.0,cwc,2013-06-11 18:50:00,
2013-06-11 12:55:00,91.6,59.6,29.55,WSW,242,5.0,-999.0,11,-99.99,,,0.00,1004.0,cwc,2013-06-11 18:55:00,
2013-06-11 13:00:00,91.8,59.8,29.55,SSE,151,5.0,-999.0,11,-99.99,,,0.00,1013.0,cwc,2013-06-11 19:00:00,
2013-06-11 13:05:00,92.2,60.2,29.54,SSE,168,1.0,-999.0,11,-99.99,,,0.00,1007.0,cwc,2013-06-11 19:05:00,
2013-06-11 13:10:00,92.5,60.5,29.54,SW,221,8.0,-999.0,11,-99.99,,,0.00,1018.0,cwc,2013-06-11 19:10:00,
2013-06-11 13:15:00,92.8,60.8,29.54,SW,229,16.0,-999.0,11,-99.99,,,0.00,1005.0,cwc,2013-06-11 19:15:00,
2013-06-11 13:20:00,92.6,60.6,29.53,SW,217,10.0,-999.0,11,-99.99,,,0.00,1014.0,cwc,2013-06-11 19:20:00,
2013-06-11 13:25:00,93.1,61.1,29.53,SW,215,2.0,-999.0,11,-99.99,,,0.00,1011.0,cwc,2013-06-11 19:25:00,
2013-06-11 13:30:00,93.9,61.5,29.54,SSW,209,1.0,-999.0,10,-99.99,,,0.00,1013.0,cwc,2013-06-11 19:30:00,
2013-06-11 13:35:00,94.6,62.2,29.52,WSW,240,11.0,-999.0,10,-99.99,,,0.00,1007.0,cwc,2013-06-11 19:35:00,
2013-06-11 13:40:00,95.2,62.8,29.53,SW,236,3.0,-999.0,10,-99.99,,,0.00,1005.0,cwc,2013-06-11 19:40:00,
2013-06-11 13:45:00,94.7,62.3,29.53,SSW,209,9.0,-999.0,10,-99.99,,,0.00,1002.0,cwc,2013-06-11 19:45:00,
2013-06-11 13:50:00,94.8,62.4,29.53,SSW,207,10.0,-999.0,10,-99.99,,,0.00,1005.0,cwc,2013-06-11 19:50:00,
2013-06-11 13:55:00,94.7,62.3,29.53,NW,326,1.0,-999.0,10,-99.99,,,0.00,1004.0,cwc,2013-06-11 19:55:00,
2013-06-11 14:00:00,94.9,62.5,29.52,South,190,7.0,-999.0,10,-99.99,,,0.00,1002.0,cwc,2013-06-11 20:00:00,
2013-06-11 14:05:00,94.7,62.3,29.52,WSW,240,10.0,-999.0,10,-99.99,,,0.00,995.0,cwc,2013-06-11 20:05:00,
2013-06-11 14:10:00,94.5,62.1,29.52,SW,230,9.0,-999.0,10,-99.99,,,0.00,995.0,cwc,2013-06-11 20:10:00,
2013-06-11 14:15:00,94.6,62.2,29.52,West,271,7.0,-999.0,10,-99.99,,,0.00,993.0,cwc,2013-06-11 20:15:00,
2013-06-11 14:20:00,94.6,61.8,29.52,WSW,241,12.0,-999.0,9,-99.99,,,0.00,969.0,cwc,2013-06-11 20:20:00,
2013-06-11 14:25:00,94.5,61.7,29.52,SSW,210,10.0,-999.0,9,-99.99,,,0.00,974.0,cwc,2013-06-11 20:25:00,
2013-06-11 14:30:00,94.4,61.6,29.52,West,273,7.0,-999.0,9,-99.99,,,0.00,942.0,cwc,2013-06-11 20:30:00,
2013-06-11 14:35:00,94.4,61.6,29.52,SW,232,4.0,-999.0,9,-99.99,,,0.00,956.0,cwc,2013-06-11 20:35:00,
2013-06-11 14:40:00,94.7,62.3,29.51,North,11,5.0,-999.0,10,-99.99,,,0.00,919.0,cwc,2013-06-11 20:40:00,
2013-06-11 14:45:00,95.3,62.5,29.51,South,180,5.0,-999.0,9,-99.99,,,0.00,867.0,cwc,2013-06-11 20:45:00,
2013-06-11 14:50:00,95.5,62.7,29.51,WSW,243,4.0,-999.0,9,-99.99,,,0.00,877.0,cwc,2013-06-11 20:50:00,
2013-06-11 15:00:00,95.1,62.3,29.51,WSW,242,5.0,-999.0,9,-99.99,,,0.00,930.0,cwc,2013-06-11 21:00:00,
2013-06-11 15:05:00,95.1,62.3,29.50,SSW,199,7.0,-999.0,9,-99.99,,,0.00,907.0,cwc,2013-06-11 21:05:00,
2013-06-11 15:10:00,94.9,62.5,29.50,SW,234,2.0,-999.0,10,-99.99,,,0.00,914.0,cwc,2013-06-11 21:10:00,
2013-06-11 15:15:00,95.4,63.0,29.50,SW,217,4.0,-999.0,10,-99.99,,,0.00,893.0,cwc,2013-06-11 21:15:00,
2013-06-11 15:25:00,95.9,63.1,29.50,SW,232,10.0,-999.0,9,-99.99,,,0.00,874.0,cwc,2013-06-11 21:25:00,
2013-06-11 15:30:00,95.9,63.1,29.50,SW,236,6.0,-999.0,9,-99.99,,,0.00,833.0,cwc,2013-06-11 21:30:00,
2013-06-11 15:35:00,95.5,63.1,29.49,WSW,237,1.0,-999.0,10,-99.99,,,0.00,889.0,cwc,2013-06-11 21:35:00,
2013-06-11 15:40:00,94.7,62.3,29.49,SW,215,7.0,-999.0,10,-99.99,,,0.00,142.0,cwc,2013-06-11 21:40:00,
2013-06-11 15:45:00,94.6,62.2,29.48,SSE,155,0.0,-999.0,10,-99.99,,,0.00,824.0,cwc,2013-06-11 21:45:00,
2013-06-11 15:50:00,95.4,63.0,29.48,SSW,209,7.0,-999.0,10,-99.99,,,0.00,807.0,cwc,2013-06-11 21:50:00,
2013-06-11 15:55:00,95.9,63.1,29.49,WSW,252,6.0,-999.0,9,-99.99,,,0.00,810.0,cwc,2013-06-11 21:55:00,
2013-06-11 16:05:00,95.5,62.7,29.48,SW,228,1.0,-999.0,9,-99.99,,,0.00,575.0,cwc,2013-06-11 22:05:00,
2013-06-11 16:10:00,95.5,62.4,29.47,SW,217,11.0,-999.0,8,-99.99,,,0.00,759.0,cwc,2013-06-11 22:10:00,
2013-06-11 16:15:00,95.8,63.0,29.47,SSW,206,4.0,-999.0,9,-99.99,,,0.00,737.0,cwc,2013-06-11 22:15:00,
2013-06-11 16:25:00,96.6,63.5,29.48,West,275,2.0,-999.0,8,-99.99,,,0.00,735.0,cwc,2013-06-11 22:25:00,
2013-06-11 16:30:00,96.8,63.7,29.47,South,182,2.0,-999.0,8,-99.99,,,0.00,722.0,cwc,2013-06-11 22:30:00,
2013-06-11 16:35:00,97.0,63.5,29.47,SW,217,0.0,-999.0,7,-99.99,,,0.00,703.0,cwc,2013-06-11 22:35:00,
2013-06-11 16:40:00,97.1,64.0,29.47,SW,216,7.0,-999.0,8,-99.99,,,0.00,670.0,cwc,2013-06-11 22:40:00,
2013-06-11 16:45:00,97.2,63.7,29.47,SW,223,10.0,-999.0,7,-99.99,,,0.00,654.0,cwc,2013-06-11 22:45:00,
2013-06-11 16:50:00,96.8,63.3,29.48,SW,219,4.0,-999.0,7,-99.99,,,0.00,675.0,cwc,2013-06-11 22:50:00,
2013-06-11 16:55:00,96.4,62.9,29.47,South,173,0.0,-999.0,7,-99.99,,,0.00,575.0,cwc,2013-06-11 22:55:00,
2013-06-11 17:05:00,96.2,62.7,29.48,West,273,1.0,-999.0,7,-99.99,,,0.00,605.0,cwc,2013-06-11 23:05:00,
2013-06-11 17:10:00,95.6,62.1,29.48,North,9,7.0,-999.0,7,-99.99,,,0.00,178.0,cwc,2013-06-11 23:10:00,
2013-06-11 17:15:00,94.7,61.2,29.47,SSW,198,3.0,-999.0,7,-99.99,,,0.00,323.0,cwc,2013-06-11 23:15:00,
2013-06-11 17:25:00,94.0,60.5,29.48,NNW,348,3.0,-999.0,7,-99.99,,,0.00,613.0,cwc,2013-06-11 23:25:00,
2013-06-11 17:35:00,94.7,61.2,29.47,ENE,61,5.0,-999.0,7,-99.99,,,0.00,501.0,cwc,2013-06-11 23:35:00,
2013-06-11 17:40:00,94.7,61.2,29.47,SW,215,4.0,-999.0,7,-99.99,,,0.00,267.0,cwc,2013-06-11 23:40:00,
2013-06-11 17:45:00,94.5,61.0,29.47,South,171,3.0,-999.0,7,-99.99,,,0.00,135.0,cwc,2013-06-11 23:45:00,
2013-06-11 17:50:00,94.0,60.5,29.47,SW,224,2.0,-999.0,7,-99.99,,,0.00,237.0,cwc,2013-06-11 23:50:00,
2013-06-11 17:55:00,93.7,60.2,29.46,ESE,111,2.0,-999.0,7,-99.99,,,0.00,113.0,cwc,2013-06-11 23:55:00,
2013-06-11 18:05:00,93.0,59.5,29.47,SSE,165,0.0,-999.0,7,-99.99,,,0.00,102.0,cwc,2013-06-12 00:05:00,
2013-06-11 18:10:00,92.7,59.2,29.47,NNE,28,4.0,-999.0,7,-99.99,,,0.00,114.0,cwc,2013-06-12 00:10:00,
2013-06-11 18:15:00,92.2,58.7,29.47,SW,226,2.0,-999.0,7,-99.99,,,0.00,151.0,cwc,2013-06-12 00:15:00,
2013-06-11 18:25:00,92.3,58.8,29.47,SSW,193,2.0,-999.0,7,-99.99,,,0.00,67.0,cwc,2013-06-12 00:25:00,
2013-06-11 18:30:00,92.1,58.6,29.47,SSW,209,6.0,-999.0,7,-99.99,,,0.00,44.0,cwc,2013-06-12 00:30:00,
2013-06-11 18:35:00,91.7,58.2,29.47,SSE,150,0.0,-999.0,7,-99.99,,,0.00,47.0,cwc,2013-06-12 00:35:00,
2013-06-11 18:40:00,91.4,57.9,29.48,SW,221,4.0,-999.0,7,-99.99,,,0.00,51.0,cwc,2013-06-12 00:40:00,
2013-06-11 18:45:00,91.2,57.7,29.48,West,267,7.0,-999.0,7,-99.99,,,0.00,44.0,cwc,2013-06-12 00:45:00,
2013-06-11 18:50:00,91.0,57.5,29.48,SW,214,7.0,-999.0,7,-99.99,,,0.00,37.0,cwc,2013-06-12 00:50:00,
2013-06-11 18:55:00,90.8,57.3,29.48,SW,227,3.0,-999.0,7,-99.99,,,0.00,35.0,cwc,2013-06-12 00:55:00,
2013-06-11 19:00:00,90.7,57.2,29.48,West,261,0.0,-999.0,7,-99.99,,,0.00,37.0,cwc,2013-06-12 01:00:00,
2013-06-11 19:05:00,90.7,57.2,29.48,SW,230,4.0,-999.0,7,-99.99,,,0.00,33.0,cwc,2013-06-12 01:05:00,
2013-06-11 19:10:00,90.6,57.1,29.49,WSW,257,4.0,-999.0,7,-99.99,,,0.00,35.0,cwc,2013-06-12 01:10:00,
2013-06-11 19:15:00,90.5,57.0,29.49,SW,215,6.0,-999.0,7,-99.99,,,0.00,33.0,cwc,2013-06-12 01:15:00,
2013-06-11 19:20:00,90.4,56.9,29.49,SW,225,0.0,-999.0,7,-99.99,,,0.00,30.0,cwc,2013-06-12 01:20:00,
2013-06-11 19:25:00,90.2,56.7,29.49,SW,223,5.0,-999.0,7,-99.99,,,0.00,28.0,cwc,2013-06-12 01:25:00,
2013-06-11 19:30:00,90.0,56.5,29.49,SW,234,2.0,-999.0,7,-99.99,,,0.00,28.0,cwc,2013-06-12 01:30:00,
2013-06-11 19:35:00,89.9,56.4,29.49,SW,230,6.0,-999.0,7,-99.99,,,0.00,26.0,cwc,2013-06-12 01:35:00,
2013-06-11 19:40:00,89.7,56.6,29.49,SW,226,2.0,-999.0,8,-99.99,,,0.00,30.0,cwc,2013-06-12 01:40:00,
2013-06-11 19:45:00,89.5,56.0,29.50,SW,217,2.0,-999.0,7,-99.99,,,0.00,28.0,cwc,2013-06-12 01:45:00,
2013-06-11 19:55:00,89.3,55.8,29.50,SSW,211,7.0,-999.0,7,-99.99,,,0.00,30.0,cwc,2013-06-12 01:55:00,
2013-06-11 20:00:00,89.3,55.8,29.50,SW,222,4.0,-999.0,7,-99.99,,,0.00,26.0,cwc,2013-06-12 02:00:00,
2013-06-11 20:05:00,89.3,56.2,29.50,WSW,242,3.0,-999.0,8,-99.99,,,0.00,19.0,cwc,2013-06-12 02:05:00,
2013-06-11 20:10:00,89.0,55.9,29.50,WSW,241,1.0,-999.0,8,-99.99,,,0.00,12.0,cwc,2013-06-12 02:10:00,
2013-06-11 20:15:00,88.5,55.4,29.51,WSW,240,3.0,-999.0,8,-99.99,,,0.00,7.0,cwc,2013-06-12 02:15:00,
2013-06-11 20:20:00,88.1,55.0,29.51,WSW,240,3.0,-999.0,8,-99.99,,,0.00,0.0,cwc,2013-06-12 02:20:00,
2013-06-11 20:25:00,87.4,54.3,29.51,WSW,240,1.0,-999.0,8,-99.99,,,0.00,0.0,cwc,2013-06-12 02:25:00,
2013-06-11 20:30:00,86.9,53.8,29.51,SW,230,2.0,-999.0,8,-99.99,,,0.00,0.0,cwc,2013-06-12 02:30:00,
2013-06-11 20:35:00,86.8,54.0,29.51,SW,219,6.0,-999.0,9,-99.99,,,0.00,0.0,cwc,2013-06-12 02:35:00,
2013-06-11 20:40:00,86.9,54.1,29.51,SW,215,7.0,-999.0,9,-99.99,,,0.00,0.0,cwc,2013-06-12 02:40:00,
2013-06-11 20:45:00,86.7,53.9,29.51,SSW,210,3.0,-999.0,9,-99.99,,,0.00,0.0,cwc,2013-06-12 02:45:00,
2013-06-11 20:50:00,86.6,53.8,29.52,SSW,213,3.0,-999.0,9,-99.99,,,0.00,0.0,cwc,2013-06-12 02:50:00,
2013-06-11 20:55:00,86.5,53.7,29.52,SW,215,6.0,-999.0,9,-99.99,,,0.00,0.0,cwc,2013-06-12 02:55:00,
2013-06-11 21:00:00,86.6,53.8,29.52,SW,223,2.0,-999.0,9,-99.99,,,0.00,0.0,cwc,2013-06-12 03:00:00,
2013-06-11 21:05:00,85.2,52.8,29.52,SW,222,1.0,-999.0,10,-99.99,,,0.00,0.0,cwc,2013-06-12 03:05:00,
2013-06-11 21:10:00,83.3,50.9,29.52,SW,219,3.0,-999.0,10,-99.99,,,0.00,0.0,cwc,2013-06-12 03:10:00,
2013-06-11 21:15:00,83.1,50.7,29.53,SSW,200,0.0,-999.0,10,-99.99,,,0.00,0.0,cwc,2013-06-12 03:15:00,
2013-06-11 21:20:00,82.7,50.3,29.53,SSW,200,0.0,-999.0,10,-99.99,,,0.00,0.0,cwc,2013-06-12 03:20:00,
2013-06-11 21:25:00,82.0,50.0,29.53,SSW,200,0.0,-999.0,11,-99.99,,,0.00,0.0,cwc,2013-06-12 03:25:00,
2013-06-11 21:30:00,81.2,49.2,29.54,SSW,200,0.0,-999.0,11,-99.99,,,0.00,0.0,cwc,2013-06-12 03:30:00,
2013-06-11 21:35:00,79.9,48.2,29.54,SSW,200,1.0,-999.0,12,-99.99,,,0.00,0.0,cwc,2013-06-12 03:35:00,
2013-06-11 21:40:00,78.3,47.3,29.55,SW,223,4.0,-999.0,14,-99.99,,,0.00,0.0,cwc,2013-06-12 03:40:00,
2013-06-11 21:45:00,76.3,45.7,29.56,SW,222,2.0,-999.0,15,-99.99,,,0.00,0.0,cwc,2013-06-12 03:45:00,
2013-06-11 21:55:00,73.9,42.9,29.56,SW,222,1.0,-999.0,14,-99.99,,,0.00,0.0,cwc,2013-06-12 03:55:00,
2013-06-11 22:00:00,73.5,43.6,29.57,SW,222,2.0,-999.0,17,-99.99,,,0.00,0.0,cwc,2013-06-12 04:00:00,
2013-06-11 22:05:00,72.6,42.7,29.57,SW,223,0.0,-999.0,17,-99.99,,,0.00,0.0,cwc,2013-06-12 04:05:00,
2013-06-11 22:10:00,71.7,41.8,29.57,SW,223,0.0,-999.0,17,-99.99,,,0.00,0.0,cwc,2013-06-12 04:10:00,
2013-06-11 22:15:00,70.9,40.7,29.57,SW,223,0.0,-999.0,16,-99.99,,,0.00,0.0,cwc,2013-06-12 04:15:00,
2013-06-11 22:20:00,70.2,40.3,29.58,SW,222,1.0,-999.0,17,-99.99,,,0.00,0.0,cwc,2013-06-12 04:20:00,
2013-06-11 22:25:00,69.9,39.7,29.58,SW,223,0.0,-999.0,16,-99.99,,,0.00,0.0,cwc,2013-06-12 04:25:00,
2013-06-11 22:30:00,69.7,39.8,29.58,SW,223,0.0,-999.0,17,-99.99,,,0.00,0.0,cwc,2013-06-12 04:30:00,
2013-06-11 22:35:00,69.1,38.9,29.59,SW,222,0.0,-999.0,16,-99.99,,,0.00,0.0,cwc,2013-06-12 04:35:00,
2013-06-11 22:40:00,68.5,39.3,29.59,SW,222,1.0,-999.0,19,-99.99,,,0.00,0.0,cwc,2013-06-12 04:40:00,
2013-06-11 22:45:00,68.1,38.6,29.59,SW,223,0.0,-999.0,18,-99.99,,,0.00,0.0,cwc,2013-06-12 04:45:00,
2013-06-11 22:50:00,67.7,38.2,29.60,SW,223,0.0,-999.0,18,-99.99,,,0.00,0.0,cwc,2013-06-12 04:50:00,
2013-06-11 22:55:00,67.2,37.3,29.60,SW,223,1.0,-999.0,17,-99.99,,,0.00,0.0,cwc,2013-06-12 04:55:00,
2013-06-11 23:00:00,67.2,37.3,29.60,SW,223,0.0,-999.0,17,-99.99,,,0.00,0.0,cwc,2013-06-12 05:00:00,
2013-06-11 23:05:00,66.8,36.9,29.60,SW,223,0.0,-999.0,17,-99.99,,,0.00,0.0,cwc,2013-06-12 05:05:00,
2013-06-11 23:10:00,66.1,36.6,29.60,SW,222,0.0,-999.0,18,-99.99,,,0.00,0.0,cwc,2013-06-12 05:10:00,
2013-06-11 23:15:00,65.8,35.9,29.61,SW,222,0.0,-999.0,17,-99.99,,,0.00,0.0,cwc,2013-06-12 05:15:00,
2013-06-11 23:20:00,66.2,36.3,29.61,SW,225,0.0,-999.0,17,-99.99,,,0.00,0.0,cwc,2013-06-12 05:20:00,
2013-06-11 23:25:00,66.3,36.4,29.61,SW,225,2.0,-999.0,17,-99.99,,,0.00,0.0,cwc,2013-06-12 05:25:00,
2013-06-11 23:30:00,65.8,35.9,29.61,SW,225,3.0,-999.0,17,-99.99,,,0.00,0.0,cwc,2013-06-12 05:30:00,
2013-06-11 23:35:00,64.9,35.4,29.62,SW,225,1.0,-999.0,18,-99.99,,,0.00,0.0,cwc,2013-06-12 05:35:00,
2013-06-11 23:40:00,64.0,34.5,29.62,SW,225,3.0,-999.0,18,-99.99,,,0.00,0.0,cwc,2013-06-12 05:40:00,
2013-06-11 23:45:00,63.7,34.2,29.62,SW,225,4.0,-999.0,18,-99.99,,,0.00,0.0,cwc,2013-06-12 05:45:00,
2013-06-11 23:55:00,63.2,33.7,29.62,SW,225,4.0,-999.0,18,-99.99,,,0.00,0.0,cwc,2013-06-12 05:55:00,